In Rescue
 
August 19, 2022 7:14 AM EDT
Weather Information
Wind Direction
  ---
Wind Speed
  00 kt (0 mph)
Wind Gust
  00 kt (0 mph)
Altimeter
30.03 in
Visibility
10 SM
Temperature
17° C
63° F
Dewpoint
17° C
63° F
Humidity
100%
1hr Rain Fall
00.00 in.
24hr Rain Fall
00.00 in.
Sky Condition
Overcast @ 12,000 ft
Broken @ 9,000 ft
VFR

METAR KONZ 191114Z AUTO 00000KT 10SM BKN090 OVC120 17/17 A3003 RMK AO2 T01690169

FAA Disclaimer: The data displayed is for advisory purposes only and is not to be used for flight planning or operations.